Imagination — C6FN2 — position and weather

sailwx.info

Track history (hours):
 
Tides and Currents Weather Stations Pressure Air Temp Water Temp Dewpoint Dewpoint Depression Visibility Wind Speed Wind Dir Waves Ship Positions

Imagination

Operator: Carnival Cruise Lines

Last reported at 2019-Dec-08 10:00 UTC. Time now 2019-Dec-08 10:55 UTC.
Position N 33°14' W 117°60'.

Type: Passenger vessel. MMSI: 309933000.

Date/timePositionNaut miles runAvg speedWind from/ knotsBaromVisibWave heightAir tempDewpointWater temp
2019-Dec-08 10:00N 33°14' W 117°60'1010.3
2019-Dec-08 09:01N 33°05' W 117°55'71 3.2
2019-Dec-07 11:00N 31°54' W 117°54'3469.7 020 / 91017.010.8 17.015.417.0
2019-Dec-07 10:30N 31°59' W 117°15'7 7.2
2019-Dec-07 09:30N 31°52' W 117°14'8 7.5
2019-Dec-07 08:30N 31°45' W 117°13'9 5.9
2019-Dec-07 06:58N 31°37' W 117°18'4 7.7
2019-Dec-07 06:30N 31°35' W 117°22'15 7.5
2019-Dec-07 04:30N 31°30' W 117°39'11 7.4
2019-Dec-07 03:00N 31°26' W 117°51'26 4.7
2019-Dec-06 21:30N 31°45' W 118°12'3 6.4
2019-Dec-06 21:00N 31°46' W 118°09'8 8.0
2019-Dec-06 20:00N 31°42' W 118°00'4 8.1
2019-Dec-06 19:30N 31°40' W 117°56'11 7.2
2019-Dec-06 18:00N 31°50' W 117°51'8 7.9
2019-Dec-06 17:00N 31°57' W 117°48'8 7.9
2019-Dec-06 16:00N 32°05' W 117°46'12 7.8
2019-Dec-06 14:30N 32°17' W 117°47'4 7.8
2019-Dec-06 14:00N 32°21' W 117°47'8 7.6
2019-Dec-06 13:00N 32°28' W 117°48'4 7.6
2019-Dec-06 12:30N 32°32' W 117°48'4 7.6
2019-Dec-06 12:00N 32°36' W 117°48'8 7.7
2019-Dec-06 11:00N 32°43' W 117°51'31 7.7
2019-Dec-06 07:00N 33°12' W 118°03'4 7.9
2019-Dec-06 06:30N 33°16' W 118°05'16 7.9
2019-Dec-06 04:30N 33°31' W 118°11'14 5.6
2019-Dec-06 01:58N 33°45' W 118°11'0 0.0
2019-Dec-06 01:28N 33°45' W 118°11'0 0.0
2019-Dec-05 22:28N 33°45' W 118°11'0 0.0
2019-Dec-05 19:28N 33°45' W 118°11'0 0.0
2019-Dec-05 18:28N 33°45' W 118°11'0 0.0
2019-Dec-05 17:28N 33°45' W 118°11'0 0.0
2019-Dec-05 16:28N 33°45' W 118°11'0 0.0
2019-Dec-05 15:28N 33°45' W 118°11'0 0.2
2019-Dec-05 13:31N 33°45' W 118°11'3 6.5
2019-Dec-05 13:00N 33°42' W 118°11'29 7.3
2019-Dec-05 09:00N 33°14' W 117°60'22 7.3
2019-Dec-05 06:00N 32°54' W 117°50'4 7.9
2019-Dec-05 05:30N 32°50' W 117°49'4 7.7
2019-Dec-05 05:00N 32°46' W 117°49'25 8.4
2019-Dec-05 02:00N 32°21' W 117°44'8 7.9
2019-Dec-05 01:00N 32°13' W 117°42'29 0.8
2019-Dec-03 11:30N 31°59' W 117°11'17 8.7
2019-Dec-03 09:30N 32°10' W 117°28'4 8.6
2019-Dec-03 09:00N 32°13' W 117°32'4 8.8
2019-Dec-03 08:30N 32°16' W 117°35'8 8.5
2019-Dec-03 07:30N 32°22' W 117°42'1010.3
2019-Dec-03 06:30N 32°32' W 117°46'10 9.8
2019-Dec-03 05:30N 32°42' W 117°46'9 9.2
2019-Dec-03 04:30N 32°51' W 117°48'4 9.0
2019-Dec-03 04:00N 32°55' W 117°51'5 9.2
2019-Dec-03 03:30N 32°58' W 117°54'3010.1
2019-Dec-03 00:30N 33°21' W 118°18'1 0.4
2019-Dec-02 23:00N 33°21' W 118°19'0 0.1
2019-Dec-02 22:30N 33°21' W 118°19'0 0.1
2019-Dec-02 21:30N 33°21' W 118°19'0 0.0
2019-Dec-02 19:30N 33°21' W 118°19'0 0.0
2019-Dec-02 19:00N 33°21' W 118°19'0 0.0
2019-Dec-02 18:30N 33°21' W 118°19'0 0.0
2019-Dec-02 17:30N 33°21' W 118°19'0 0.0
2019-Dec-02 17:00N 33°21' W 118°19'0 0.0
2019-Dec-02 15:59N 33°21' W 118°19'14 4.9
2019-Dec-02 13:01N 33°07' W 118°16'11 7.1
2019-Dec-02 11:31N 32°59' W 118°07'9 2.9
2019-Dec-02 08:30N 33°01' W 117°57'7 7.2
2019-Dec-02 07:31N 33°08' W 118°00'4 7.2
2019-Dec-02 07:00N 33°11' W 118°02'7 7.3
2019-Dec-02 06:00N 33°18' W 118°05'6 6.0
2019-Dec-02 05:00N 33°24' W 118°06'611.8 040 / 51017.010.8 15.011.617.0
2019-Dec-02 04:30N 33°28' W 118°10'4 7.6
2019-Dec-02 04:00N 33°32' W 118°12'4 8.0
2019-Dec-02 03:31N 33°36' W 118°13'9 4.6
2019-Dec-02 01:29N 33°45' W 118°11'0 0.0
2019-Dec-01 23:29N 33°45' W 118°11'0 0.0
2019-Dec-01 19:58N 33°45' W 118°11'0 0.0
2019-Dec-01 18:28N 33°45' W 118°11'0 0.0
2019-Dec-01 16:28N 33°45' W 118°11'0 0.0
2019-Dec-01 15:58N 33°45' W 118°11'0 0.0
2019-Dec-01 14:00N 33°45' W 118°11'4 4.3
2019-Dec-01 13:00N 33°41' W 118°11'8 8.4
2019-Dec-01 12:01N 33°33' W 118°08'5 9.1
2019-Dec-01 11:30N 33°28' W 118°06'3110.4
2019-Dec-01 08:30N 32°59' W 117°53'4414.8
2019-Dec-01 05:30N 32°18' W 117°33'917.6
2019-Dec-01 05:00N 32°12' W 117°26'19 0.6
2019-Nov-29 21:30N 32°06' W 117°47'4 7.3
2019-Nov-29 21:00N 32°10' W 117°46'4 7.9
2019-Nov-29 20:30N 32°14' W 117°46'8 7.8
2019-Nov-29 19:30N 32°21' W 117°44'12 8.1
2019-Nov-29 18:00N 32°33' W 117°45'4 8.5
2019-Nov-29 17:31N 32°37' W 117°48'8 7.8
2019-Nov-29 16:31N 32°41' W 117°55'4 7.5
2019-Nov-29 16:01N 32°44' W 117°58'4 7.9
2019-Nov-29 15:30N 32°48' W 117°57'11 7.3
2019-Nov-29 14:00N 32°52' W 117°45'9 4.5
2019-Nov-29 12:01N 32°57' W 117°53'4 7.8
2019-Nov-29 11:30N 32°56' W 117°58'10 4.8
2019-Nov-29 09:30N 32°60' W 118°08'12 5.8
2019-Nov-29 07:31N 33°10' W 118°03'4 8.1
2019-Nov-29 07:00N 33°14' W 118°04'5 9.8
2019-Nov-29 06:30N 33°19' W 118°06'1510.0
2019-Nov-29 05:00N 33°33' W 118°12'5 9.5
2019-Nov-29 04:30N 33°38' W 118°13'8 7.3
2019-Nov-29 03:28N 33°45' W 118°11'0 0.0
2019-Nov-29 02:28N 33°45' W 118°11'0 0.0
2019-Nov-29 01:58N 33°45' W 118°11'0 0.0
2019-Nov-29 00:28N 33°45' W 118°11'0 0.0
2019-Nov-28 21:28N 33°45' W 118°11'0 0.0
2019-Nov-28 19:58N 33°45' W 118°11'0 0.0
2019-Nov-28 19:28N 33°45' W 118°11'0 0.0
2019-Nov-28 18:58N 33°45' W 118°11'0 0.0
2019-Nov-28 17:58N 33°45' W 118°11'0 0.0
2019-Nov-28 16:28N 33°45' W 118°11'0 0.0
2019-Nov-28 15:58N 33°45' W 118°11'0 0.0
2019-Nov-28 14:30N 33°45' W 118°11'0 0.0
2019-Nov-28 14:00N 33°45' W 118°11'0 0.7
2019-Nov-28 13:30N 33°45' W 118°11'  
Track history (hours):
 
Tides and Currents Weather Stations Pressure Air Temp Water Temp Dewpoint Dewpoint Depression Visibility Wind Speed Wind Dir Waves Ship Positions

Imagination

Operator: Carnival Cruise Lines

Last reported at 2019-Dec-08 10:00 UTC. Time now 2019-Dec-08 10:55 UTC.
Position N 33°14' W 117°60'.

Type: Passenger vessel. MMSI: 309933000.

Date/timePositionNaut miles runAvg speedWind from/ knotsBaromVisibWave heightAir tempDewpointWater temp
2019-Dec-08 10:00N 33°14' W 117°60'1010.3
2019-Dec-08 09:01N 33°05' W 117°55'71 3.2
2019-Dec-07 11:00N 31°54' W 117°54'3469.7 020 / 91017.010.8 17.015.417.0
2019-Dec-07 10:30N 31°59' W 117°15'7 7.2
2019-Dec-07 09:30N 31°52' W 117°14'8 7.5
2019-Dec-07 08:30N 31°45' W 117°13'9 5.9
2019-Dec-07 06:58N 31°37' W 117°18'4 7.7
2019-Dec-07 06:30N 31°35' W 117°22'15 7.5
2019-Dec-07 04:30N 31°30' W 117°39'11 7.4
2019-Dec-07 03:00N 31°26' W 117°51'26 4.7
2019-Dec-06 21:30N 31°45' W 118°12'3 6.4
2019-Dec-06 21:00N 31°46' W 118°09'8 8.0
2019-Dec-06 20:00N 31°42' W 118°00'4 8.1
2019-Dec-06 19:30N 31°40' W 117°56'11 7.2
2019-Dec-06 18:00N 31°50' W 117°51'8 7.9
2019-Dec-06 17:00N 31°57' W 117°48'8 7.9
2019-Dec-06 16:00N 32°05' W 117°46'12 7.8
2019-Dec-06 14:30N 32°17' W 117°47'4 7.8
2019-Dec-06 14:00N 32°21' W 117°47'8 7.6
2019-Dec-06 13:00N 32°28' W 117°48'4 7.6
2019-Dec-06 12:30N 32°32' W 117°48'4 7.6
2019-Dec-06 12:00N 32°36' W 117°48'8 7.7
2019-Dec-06 11:00N 32°43' W 117°51'31 7.7
2019-Dec-06 07:00N 33°12' W 118°03'4 7.9
2019-Dec-06 06:30N 33°16' W 118°05'16 7.9
2019-Dec-06 04:30N 33°31' W 118°11'14 5.6
2019-Dec-06 01:58N 33°45' W 118°11'0 0.0
2019-Dec-06 01:28N 33°45' W 118°11'0 0.0
2019-Dec-05 22:28N 33°45' W 118°11'0 0.0
2019-Dec-05 19:28N 33°45' W 118°11'0 0.0
2019-Dec-05 18:28N 33°45' W 118°11'0 0.0
2019-Dec-05 17:28N 33°45' W 118°11'0 0.0
2019-Dec-05 16:28N 33°45' W 118°11'0 0.0
2019-Dec-05 15:28N 33°45' W 118°11'0 0.2
2019-Dec-05 13:31N 33°45' W 118°11'3 6.5
2019-Dec-05 13:00N 33°42' W 118°11'29 7.3
2019-Dec-05 09:00N 33°14' W 117°60'22 7.3
2019-Dec-05 06:00N 32°54' W 117°50'4 7.9
2019-Dec-05 05:30N 32°50' W 117°49'4 7.7
2019-Dec-05 05:00N 32°46' W 117°49'25 8.4
2019-Dec-05 02:00N 32°21' W 117°44'8 7.9
2019-Dec-05 01:00N 32°13' W 117°42'29 0.8
2019-Dec-03 11:30N 31°59' W 117°11'17 8.7
2019-Dec-03 09:30N 32°10' W 117°28'4 8.6
2019-Dec-03 09:00N 32°13' W 117°32'4 8.8
2019-Dec-03 08:30N 32°16' W 117°35'8 8.5
2019-Dec-03 07:30N 32°22' W 117°42'1010.3
2019-Dec-03 06:30N 32°32' W 117°46'10 9.8
2019-Dec-03 05:30N 32°42' W 117°46'9 9.2
2019-Dec-03 04:30N 32°51' W 117°48'4 9.0
2019-Dec-03 04:00N 32°55' W 117°51'5 9.2
2019-Dec-03 03:30N 32°58' W 117°54'3010.1
2019-Dec-03 00:30N 33°21' W 118°18'1 0.4
2019-Dec-02 23:00N 33°21' W 118°19'0 0.1
2019-Dec-02 22:30N 33°21' W 118°19'0 0.1
2019-Dec-02 21:30N 33°21' W 118°19'0 0.0
2019-Dec-02 19:30N 33°21' W 118°19'0 0.0
2019-Dec-02 19:00N 33°21' W 118°19'0 0.0
2019-Dec-02 18:30N 33°21' W 118°19'0 0.0
2019-Dec-02 17:30N 33°21' W 118°19'0 0.0
2019-Dec-02 17:00N 33°21' W 118°19'0 0.0
2019-Dec-02 15:59N 33°21' W 118°19'14 4.9
2019-Dec-02 13:01N 33°07' W 118°16'11 7.1
2019-Dec-02 11:31N 32°59' W 118°07'9 2.9
2019-Dec-02 08:30N 33°01' W 117°57'7 7.2
2019-Dec-02 07:31N 33°08' W 118°00'4 7.2
2019-Dec-02 07:00N 33°11' W 118°02'7 7.3
2019-Dec-02 06:00N 33°18' W 118°05'6 6.0
2019-Dec-02 05:00N 33°24' W 118°06'611.8 040 / 51017.010.8 15.011.617.0
2019-Dec-02 04:30N 33°28' W 118°10'4 7.6
2019-Dec-02 04:00N 33°32' W 118°12'4 8.0
2019-Dec-02 03:31N 33°36' W 118°13'9 4.6
2019-Dec-02 01:29N 33°45' W 118°11'0 0.0
2019-Dec-01 23:29N 33°45' W 118°11'0 0.0
2019-Dec-01 19:58N 33°45' W 118°11'0 0.0
2019-Dec-01 18:28N 33°45' W 118°11'0 0.0
2019-Dec-01 16:28N 33°45' W 118°11'0 0.0
2019-Dec-01 15:58N 33°45' W 118°11'0 0.0
2019-Dec-01 14:00N 33°45' W 118°11'4 4.3
2019-Dec-01 13:00N 33°41' W 118°11'8 8.4
2019-Dec-01 12:01N 33°33' W 118°08'5 9.1
2019-Dec-01 11:30N 33°28' W 118°06'3110.4
2019-Dec-01 08:30N 32°59' W 117°53'4414.8
2019-Dec-01 05:30N 32°18' W 117°33'917.6
2019-Dec-01 05:00N 32°12' W 117°26'19 0.6
2019-Nov-29 21:30N 32°06' W 117°47'4 7.3
2019-Nov-29 21:00N 32°10' W 117°46'4 7.9
2019-Nov-29 20:30N 32°14' W 117°46'8 7.8
2019-Nov-29 19:30N 32°21' W 117°44'12 8.1
2019-Nov-29 18:00N 32°33' W 117°45'4 8.5
2019-Nov-29 17:31N 32°37' W 117°48'8 7.8
2019-Nov-29 16:31N 32°41' W 117°55'4 7.5
2019-Nov-29 16:01N 32°44' W 117°58'4 7.9
2019-Nov-29 15:30N 32°48' W 117°57'11 7.3
2019-Nov-29 14:00N 32°52' W 117°45'9 4.5
2019-Nov-29 12:01N 32°57' W 117°53'4 7.8
2019-Nov-29 11:30N 32°56' W 117°58'10 4.8
2019-Nov-29 09:30N 32°60' W 118°08'12 5.8
2019-Nov-29 07:31N 33°10' W 118°03'4 8.1
2019-Nov-29 07:00N 33°14' W 118°04'5 9.8
2019-Nov-29 06:30N 33°19' W 118°06'1510.0
2019-Nov-29 05:00N 33°33' W 118°12'5 9.5
2019-Nov-29 04:30N 33°38' W 118°13'8 7.3
2019-Nov-29 03:28N 33°45' W 118°11'0 0.0
2019-Nov-29 02:28N 33°45' W 118°11'0 0.0
2019-Nov-29 01:58N 33°45' W 118°11'0 0.0
2019-Nov-29 00:28N 33°45' W 118°11'0 0.0
2019-Nov-28 21:28N 33°45' W 118°11'0 0.0
2019-Nov-28 19:58N 33°45' W 118°11'0 0.0
2019-Nov-28 19:28N 33°45' W 118°11'0 0.0
2019-Nov-28 18:58N 33°45' W 118°11'0 0.0
2019-Nov-28 17:58N 33°45' W 118°11'0 0.0
2019-Nov-28 16:28N 33°45' W 118°11'0 0.0
2019-Nov-28 15:58N 33°45' W 118°11'0 0.0
2019-Nov-28 14:30N 33°45' W 118°11'0 0.0
2019-Nov-28 14:00N 33°45' W 118°11'0 0.7
2019-Nov-28 13:30N 33°45' W 118°11'  

Dump ship's entire track history